sensor_id;sensor_type;location;lat;lon;timestamp;P1;durP1;ratioP1;P2;durP2;ratioP2
16775;SDS011;8505;49.456;8.164;2023-12-20T00:01:19;2.58;;;1.00;;
16775;SDS011;8505;49.456;8.164;2023-12-20T00:03:46;2.35;;;0.80;;
16775;SDS011;8505;49.456;8.164;2023-12-20T00:06:13;4.47;;;1.50;;
16775;SDS011;8505;49.456;8.164;2023-12-20T00:08:44;3.05;;;1.05;;
16775;SDS011;8505;49.456;8.164;2023-12-20T00:11:13;1.45;;;0.75;;
16775;SDS011;8505;49.456;8.164;2023-12-20T00:13:41;1.85;;;1.00;;
16775;SDS011;8505;49.456;8.164;2023-12-20T00:16:09;3.35;;;1.30;;
16775;SDS011;8505;49.456;8.164;2023-12-20T00:18:37;2.47;;;1.30;;
16775;SDS011;8505;49.456;8.164;2023-12-20T00:21:05;1.73;;;0.82;;
16775;SDS011;8505;49.456;8.164;2023-12-20T00:23:34;2.55;;;1.10;;
16775;SDS011;8505;49.456;8.164;2023-12-20T00:26:02;2.08;;;1.10;;
16775;SDS011;8505;49.456;8.164;2023-12-20T00:28:31;1.35;;;0.80;;
16775;SDS011;8505;49.456;8.164;2023-12-20T00:30:59;1.70;;;0.90;;
16775;SDS011;8505;49.456;8.164;2023-12-20T00:33:26;2.10;;;1.00;;
16775;SDS011;8505;49.456;8.164;2023-12-20T00:35:54;1.20;;;0.70;;
16775;SDS011;8505;49.456;8.164;2023-12-20T00:38:22;3.00;;;1.50;;
16775;SDS011;8505;49.456;8.164;2023-12-20T00:40:49;2.42;;;1.10;;
16775;SDS011;8505;49.456;8.164;2023-12-20T00:43:17;2.40;;;1.20;;
16775;SDS011;8505;49.456;8.164;2023-12-20T00:45:46;3.13;;;1.38;;
16775;SDS011;8505;49.456;8.164;2023-12-20T00:48:15;1.52;;;0.85;;
16775;SDS011;8505;49.456;8.164;2023-12-20T00:50:43;2.20;;;1.00;;
16775;SDS011;8505;49.456;8.164;2023-12-20T00:53:10;1.48;;;0.77;;
16775;SDS011;8505;49.456;8.164;2023-12-20T00:55:38;2.70;;;1.08;;
16775;SDS011;8505;49.456;8.164;2023-12-20T00:58:06;1.90;;;0.70;;
16775;SDS011;8505;49.456;8.164;2023-12-20T01:00:37;1.30;;;0.90;;
16775;SDS011;8505;49.456;8.164;2023-12-20T01:03:10;1.67;;;0.90;;
16775;SDS011;8505;49.456;8.164;2023-12-20T01:05:38;1.40;;;0.70;;
16775;SDS011;8505;49.456;8.164;2023-12-20T01:08:06;1.60;;;0.80;;
16775;SDS011;8505;49.456;8.164;2023-12-20T01:10:33;1.20;;;0.80;;
16775;SDS011;8505;49.456;8.164;2023-12-20T01:13:01;2.45;;;1.02;;
16775;SDS011;8505;49.456;8.164;2023-12-20T01:15:29;1.70;;;0.70;;
16775;SDS011;8505;49.456;8.164;2023-12-20T01:17:57;0.70;;;0.50;;
16775;SDS011;8505;49.456;8.164;2023-12-20T01:20:36;1.10;;;0.50;;
16775;SDS011;8505;49.456;8.164;2023-12-20T01:23:04;0.70;;;0.57;;
16775;SDS011;8505;49.456;8.164;2023-12-20T01:25:31;0.73;;;0.50;;
16775;SDS011;8505;49.456;8.164;2023-12-20T01:27:59;1.67;;;0.87;;
16775;SDS011;8505;49.456;8.164;2023-12-20T01:30:27;1.00;;;0.60;;
16775;SDS011;8505;49.456;8.164;2023-12-20T01:32:54;1.05;;;0.70;;
16775;SDS011;8505;49.456;8.164;2023-12-20T01:35:22;1.08;;;0.60;;
16775;SDS011;8505;49.456;8.164;2023-12-20T01:37:51;0.70;;;0.50;;
16775;SDS011;8505;49.456;8.164;2023-12-20T01:40:22;0.90;;;0.40;;
16775;SDS011;8505;49.456;8.164;2023-12-20T01:42:57;0.43;;;0.43;;
16775;SDS011;8505;49.456;8.164;2023-12-20T01:45:25;0.82;;;0.60;;
16775;SDS011;8505;49.456;8.164;2023-12-20T01:47:53;0.65;;;0.50;;
16775;SDS011;8505;49.456;8.164;2023-12-20T01:50:21;0.68;;;0.52;;
16775;SDS011;8505;49.456;8.164;2023-12-20T01:52:51;1.42;;;0.50;;
16775;SDS011;8505;49.456;8.164;2023-12-20T01:55:24;0.50;;;0.40;;
16775;SDS011;8505;49.456;8.164;2023-12-20T01:57:52;0.50;;;0.40;;
16775;SDS011;8505;49.456;8.164;2023-12-20T02:00:21;0.60;;;0.40;;
16775;SDS011;8505;49.456;8.164;2023-12-20T02:02:53;0.70;;;0.43;;
16775;SDS011;8505;49.456;8.164;2023-12-20T02:05:21;0.65;;;0.50;;
16775;SDS011;8505;49.456;8.164;2023-12-20T02:07:49;0.77;;;0.50;;
16775;SDS011;8505;49.456;8.164;2023-12-20T02:10:18;1.67;;;0.60;;
16775;SDS011;8505;49.456;8.164;2023-12-20T02:12:46;0.70;;;0.40;;
16775;SDS011;8505;49.456;8.164;2023-12-20T02:15:14;0.70;;;0.50;;
16775;SDS011;8505;49.456;8.164;2023-12-20T02:17:42;0.52;;;0.43;;
16775;SDS011;8505;49.456;8.164;2023-12-20T02:20:10;0.80;;;0.40;;
16775;SDS011;8505;49.456;8.164;2023-12-20T02:22:40;0.60;;;0.50;;
16775;SDS011;8505;49.456;8.164;2023-12-20T02:25:07;1.02;;;0.60;;
16775;SDS011;8505;49.456;8.164;2023-12-20T02:27:35;0.60;;;0.40;;
16775;SDS011;8505;49.456;8.164;2023-12-20T02:30:04;0.75;;;0.40;;
16775;SDS011;8505;49.456;8.164;2023-12-20T02:32:32;0.70;;;0.55;;
16775;SDS011;8505;49.456;8.164;2023-12-20T02:35:00;0.82;;;0.50;;
16775;SDS011;8505;49.456;8.164;2023-12-20T02:37:27;0.90;;;0.60;;
16775;SDS011;8505;49.456;8.164;2023-12-20T02:39:56;0.70;;;0.50;;
16775;SDS011;8505;49.456;8.164;2023-12-20T02:42:24;0.90;;;0.60;;
16775;SDS011;8505;49.456;8.164;2023-12-20T02:44:51;0.77;;;0.52;;
16775;SDS011;8505;49.456;8.164;2023-12-20T02:47:19;1.05;;;0.63;;
16775;SDS011;8505;49.456;8.164;2023-12-20T02:49:47;0.93;;;0.60;;
16775;SDS011;8505;49.456;8.164;2023-12-20T02:52:15;1.02;;;0.60;;
16775;SDS011;8505;49.456;8.164;2023-12-20T02:54:43;1.25;;;0.70;;
16775;SDS011;8505;49.456;8.164;2023-12-20T02:57:12;1.42;;;0.80;;
16775;SDS011;8505;49.456;8.164;2023-12-20T02:59:40;1.00;;;0.60;;
16775;SDS011;8505;49.456;8.164;2023-12-20T03:02:07;1.42;;;1.00;;
16775;SDS011;8505;49.456;8.164;2023-12-20T03:04:35;3.25;;;1.85;;
16775;SDS011;8505;49.456;8.164;2023-12-20T03:07:03;1.00;;;0.80;;
16775;SDS011;8505;49.456;8.164;2023-12-20T03:09:31;2.80;;;0.82;;
16775;SDS011;8505;49.456;8.164;2023-12-20T03:12:20;1.02;;;0.70;;
16775;SDS011;8505;49.456;8.164;2023-12-20T03:14:47;1.55;;;0.85;;
16775;SDS011;8505;49.456;8.164;2023-12-20T03:17:15;4.90;;;0.95;;
16775;SDS011;8505;49.456;8.164;2023-12-20T03:19:43;1.77;;;0.90;;
16775;SDS011;8505;49.456;8.164;2023-12-20T03:22:11;1.40;;;0.80;;
16775;SDS011;8505;49.456;8.164;2023-12-20T03:24:39;0.80;;;0.73;;
16775;SDS011;8505;49.456;8.164;2023-12-20T03:27:06;1.33;;;0.70;;
16775;SDS011;8505;49.456;8.164;2023-12-20T03:29:35;0.82;;;0.80;;
16775;SDS011;8505;49.456;8.164;2023-12-20T03:32:03;1.30;;;0.95;;
16775;SDS011;8505;49.456;8.164;2023-12-20T03:34:31;2.10;;;0.93;;
16775;SDS011;8505;49.456;8.164;2023-12-20T03:36:59;1.17;;;0.90;;
16775;SDS011;8505;49.456;8.164;2023-12-20T03:39:27;1.10;;;0.80;;
16775;SDS011;8505;49.456;8.164;2023-12-20T03:41:54;1.27;;;1.05;;
16775;SDS011;8505;49.456;8.164;2023-12-20T03:44:23;1.50;;;1.10;;
16775;SDS011;8505;49.456;8.164;2023-12-20T03:46:52;1.30;;;1.10;;
16775;SDS011;8505;49.456;8.164;2023-12-20T03:49:19;1.58;;;1.20;;
16775;SDS011;8505;49.456;8.164;2023-12-20T03:51:47;1.52;;;1.20;;
16775;SDS011;8505;49.456;8.164;2023-12-20T03:54:15;1.73;;;1.02;;
16775;SDS011;8505;49.456;8.164;2023-12-20T03:56:42;1.63;;;1.23;;
16775;SDS011;8505;49.456;8.164;2023-12-20T03:59:10;1.75;;;1.13;;
16775;SDS011;8505;49.456;8.164;2023-12-20T04:01:38;1.70;;;1.20;;
16775;SDS011;8505;49.456;8.164;2023-12-20T04:04:07;1.70;;;1.40;;
16775;SDS011;8505;49.456;8.164;2023-12-20T04:06:34;1.80;;;1.40;;
16775;SDS011;8505;49.456;8.164;2023-12-20T04:09:02;2.13;;;1.30;;
16775;SDS011;8505;49.456;8.164;2023-12-20T04:11:30;1.75;;;1.50;;
16775;SDS011;8505;49.456;8.164;2023-12-20T04:13:58;1.70;;;1.60;;
16775;SDS011;8505;49.456;8.164;2023-12-20T04:16:25;2.30;;;1.60;;
16775;SDS011;8505;49.456;8.164;2023-12-20T04:18:53;2.25;;;1.73;;
16775;SDS011;8505;49.456;8.164;2023-12-20T04:21:22;1.77;;;1.50;;
16775;SDS011;8505;49.456;8.164;2023-12-20T04:23:50;2.00;;;1.70;;
16775;SDS011;8505;49.456;8.164;2023-12-20T04:26:17;2.38;;;1.90;;
16775;SDS011;8505;49.456;8.164;2023-12-20T04:28:45;2.30;;;2.00;;
16775;SDS011;8505;49.456;8.164;2023-12-20T04:31:12;2.45;;;1.90;;
16775;SDS011;8505;49.456;8.164;2023-12-20T04:33:40;2.78;;;2.03;;
16775;SDS011;8505;49.456;8.164;2023-12-20T04:36:08;2.42;;;1.95;;
16775;SDS011;8505;49.456;8.164;2023-12-20T04:38:37;2.80;;;2.10;;
16775;SDS011;8505;49.456;8.164;2023-12-20T04:41:05;2.95;;;2.38;;
16775;SDS011;8505;49.456;8.164;2023-12-20T04:43:33;2.70;;;2.23;;
16775;SDS011;8505;49.456;8.164;2023-12-20T04:46:00;2.85;;;2.40;;
16775;SDS011;8505;49.456;8.164;2023-12-20T04:48:28;3.15;;;2.70;;
16775;SDS011;8505;49.456;8.164;2023-12-20T04:50:56;3.10;;;2.60;;
16775;SDS011;8505;49.456;8.164;2023-12-20T04:53:24;3.40;;;2.80;;
16775;SDS011;8505;49.456;8.164;2023-12-20T04:55:53;3.40;;;2.97;;
16775;SDS011;8505;49.456;8.164;2023-12-20T04:58:21;3.70;;;2.90;;
16775;SDS011;8505;49.456;8.164;2023-12-20T05:00:49;3.70;;;3.00;;
16775;SDS011;8505;49.456;8.164;2023-12-20T05:03:16;3.83;;;3.17;;
16775;SDS011;8505;49.456;8.164;2023-12-20T05:05:44;4.00;;;3.22;;
16775;SDS011;8505;49.456;8.164;2023-12-20T05:08:12;4.90;;;3.50;;
16775;SDS011;8505;49.456;8.164;2023-12-20T05:10:40;4.17;;;2.97;;
16775;SDS011;8505;49.456;8.164;2023-12-20T05:13:09;3.92;;;3.13;;
16775;SDS011;8505;49.456;8.164;2023-12-20T05:15:37;3.90;;;2.93;;
16775;SDS011;8505;49.456;8.164;2023-12-20T05:18:05;3.50;;;3.00;;
16775;SDS011;8505;49.456;8.164;2023-12-20T05:20:33;4.32;;;3.20;;
16775;SDS011;8505;49.456;8.164;2023-12-20T05:23:01;3.63;;;2.90;;
16775;SDS011;8505;49.456;8.164;2023-12-20T05:25:29;4.40;;;3.10;;
16775;SDS011;8505;49.456;8.164;2023-12-20T05:27:57;4.38;;;3.22;;
16775;SDS011;8505;49.456;8.164;2023-12-20T05:30:26;4.40;;;3.20;;
16775;SDS011;8505;49.456;8.164;2023-12-20T05:32:54;4.07;;;3.20;;
16775;SDS011;8505;49.456;8.164;2023-12-20T05:35:22;4.80;;;3.58;;
16775;SDS011;8505;49.456;8.164;2023-12-20T05:37:49;5.00;;;3.30;;
16775;SDS011;8505;49.456;8.164;2023-12-20T05:40:17;5.00;;;3.50;;
16775;SDS011;8505;49.456;8.164;2023-12-20T05:42:45;4.30;;;3.35;;
16775;SDS011;8505;49.456;8.164;2023-12-20T05:45:14;3.80;;;2.90;;
16775;SDS011;8505;49.456;8.164;2023-12-20T05:47:43;3.70;;;3.10;;
16775;SDS011;8505;49.456;8.164;2023-12-20T05:50:12;3.45;;;2.80;;
16775;SDS011;8505;49.456;8.164;2023-12-20T05:52:39;4.30;;;3.35;;
16775;SDS011;8505;49.456;8.164;2023-12-20T05:55:07;4.25;;;3.10;;
16775;SDS011;8505;49.456;8.164;2023-12-20T05:57:35;4.05;;;2.97;;
16775;SDS011;8505;49.456;8.164;2023-12-20T06:00:03;3.15;;;2.50;;
16775;SDS011;8505;49.456;8.164;2023-12-20T06:02:32;5.13;;;2.83;;
16775;SDS011;8505;49.456;8.164;2023-12-20T06:05:02;3.65;;;2.60;;
16775;SDS011;8505;49.456;8.164;2023-12-20T06:07:31;3.70;;;2.50;;
16775;SDS011;8505;49.456;8.164;2023-12-20T06:09:58;4.87;;;2.70;;
16775;SDS011;8505;49.456;8.164;2023-12-20T06:12:26;5.13;;;3.10;;
16775;SDS011;8505;49.456;8.164;2023-12-20T06:14:55;5.40;;;3.10;;
16775;SDS011;8505;49.456;8.164;2023-12-20T06:17:23;4.72;;;2.65;;
16775;SDS011;8505;49.456;8.164;2023-12-20T06:19:51;2.75;;;2.00;;
16775;SDS011;8505;49.456;8.164;2023-12-20T06:22:20;3.90;;;2.10;;
16775;SDS011;8505;49.456;8.164;2023-12-20T06:24:48;5.60;;;2.30;;
16775;SDS011;8505;49.456;8.164;2023-12-20T06:27:16;4.22;;;2.50;;
16775;SDS011;8505;49.456;8.164;2023-12-20T06:29:43;2.97;;;2.17;;
16775;SDS011;8505;49.456;8.164;2023-12-20T06:32:11;5.30;;;2.08;;
16775;SDS011;8505;49.456;8.164;2023-12-20T06:34:39;4.20;;;2.03;;
16775;SDS011;8505;49.456;8.164;2023-12-20T06:37:07;3.22;;;1.70;;
16775;SDS011;8505;49.456;8.164;2023-12-20T06:39:36;5.13;;;1.80;;
16775;SDS011;8505;49.456;8.164;2023-12-20T06:42:04;5.10;;;1.73;;
16775;SDS011;8505;49.456;8.164;2023-12-20T06:44:31;2.92;;;1.70;;
16775;SDS011;8505;49.456;8.164;2023-12-20T06:46:59;5.77;;;2.20;;
16775;SDS011;8505;49.456;8.164;2023-12-20T06:49:27;5.05;;;1.92;;
16775;SDS011;8505;49.456;8.164;2023-12-20T06:51:55;5.80;;;1.80;;
16775;SDS011;8505;49.456;8.164;2023-12-20T06:54:23;4.60;;;2.00;;
16775;SDS011;8505;49.456;8.164;2023-12-20T06:56:52;5.47;;;2.08;;
16775;SDS011;8505;49.456;8.164;2023-12-20T06:59:20;5.90;;;2.20;;
16775;SDS011;8505;49.456;8.164;2023-12-20T07:01:47;7.35;;;2.42;;
16775;SDS011;8505;49.456;8.164;2023-12-20T07:04:16;6.38;;;2.45;;
16775;SDS011;8505;49.456;8.164;2023-12-20T07:06:48;5.35;;;2.60;;
16775;SDS011;8505;49.456;8.164;2023-12-20T07:09:17;6.25;;;2.60;;
16775;SDS011;8505;49.456;8.164;2023-12-20T07:11:45;6.43;;;2.58;;
16775;SDS011;8505;49.456;8.164;2023-12-20T07:14:14;5.57;;;2.60;;
16775;SDS011;8505;49.456;8.164;2023-12-20T07:16:42;5.80;;;2.72;;
16775;SDS011;8505;49.456;8.164;2023-12-20T07:19:09;6.72;;;3.05;;
16775;SDS011;8505;49.456;8.164;2023-12-20T07:21:37;7.40;;;2.90;;
16775;SDS011;8505;49.456;8.164;2023-12-20T07:24:05;8.93;;;3.83;;
16775;SDS011;8505;49.456;8.164;2023-12-20T07:26:33;15.35;;;5.88;;
16775;SDS011;8505;49.456;8.164;2023-12-20T07:29:00;11.48;;;4.57;;
16775;SDS011;8505;49.456;8.164;2023-12-20T07:31:30;9.25;;;4.38;;
16775;SDS011;8505;49.456;8.164;2023-12-20T07:33:58;6.50;;;2.90;;
16775;SDS011;8505;49.456;8.164;2023-12-20T07:36:26;9.20;;;3.20;;
16775;SDS011;8505;49.456;8.164;2023-12-20T07:38:53;6.88;;;2.25;;
16775;SDS011;8505;49.456;8.164;2023-12-20T07:41:22;5.50;;;2.47;;
16775;SDS011;8505;49.456;8.164;2023-12-20T07:43:50;6.80;;;2.30;;
16775;SDS011;8505;49.456;8.164;2023-12-20T07:46:20;6.17;;;2.43;;
16775;SDS011;8505;49.456;8.164;2023-12-20T07:48:50;6.15;;;1.50;;
16775;SDS011;8505;49.456;8.164;2023-12-20T07:51:18;7.75;;;2.78;;
16775;SDS011;8505;49.456;8.164;2023-12-20T07:53:47;9.13;;;2.85;;
16775;SDS011;8505;49.456;8.164;2023-12-20T07:56:15;9.63;;;2.80;;
16775;SDS011;8505;49.456;8.164;2023-12-20T07:58:42;8.03;;;2.73;;
16775;SDS011;8505;49.456;8.164;2023-12-20T08:01:18;6.18;;;2.17;;
16775;SDS011;8505;49.456;8.164;2023-12-20T08:03:49;8.05;;;2.30;;
16775;SDS011;8505;49.456;8.164;2023-12-20T08:06:18;6.00;;;2.45;;
16775;SDS011;8505;49.456;8.164;2023-12-20T08:08:46;4.78;;;2.08;;
16775;SDS011;8505;49.456;8.164;2023-12-20T08:11:24;8.10;;;2.25;;
16775;SDS011;8505;49.456;8.164;2023-12-20T08:13:51;6.63;;;2.50;;
16775;SDS011;8505;49.456;8.164;2023-12-20T08:16:19;5.27;;;2.20;;
16775;SDS011;8505;49.456;8.164;2023-12-20T08:18:47;8.18;;;2.30;;
16775;SDS011;8505;49.456;8.164;2023-12-20T08:21:16;6.13;;;1.60;;
16775;SDS011;8505;49.456;8.164;2023-12-20T08:23:46;5.07;;;1.52;;
16775;SDS011;8505;49.456;8.164;2023-12-20T08:26:18;5.90;;;1.70;;
16775;SDS011;8505;49.456;8.164;2023-12-20T08:28:46;5.85;;;1.70;;
16775;SDS011;8505;49.456;8.164;2023-12-20T08:31:14;7.45;;;1.63;;
16775;SDS011;8505;49.456;8.164;2023-12-20T08:33:43;6.22;;;1.75;;
16775;SDS011;8505;49.456;8.164;2023-12-20T08:36:13;7.90;;;1.77;;
16775;SDS011;8505;49.456;8.164;2023-12-20T08:38:42;9.98;;;1.65;;
16775;SDS011;8505;49.456;8.164;2023-12-20T08:41:10;6.07;;;1.90;;
16775;SDS011;8505;49.456;8.164;2023-12-20T08:43:38;9.07;;;1.90;;
16775;SDS011;8505;49.456;8.164;2023-12-20T08:46:06;6.68;;;1.70;;
16775;SDS011;8505;49.456;8.164;2023-12-20T08:48:36;7.95;;;1.88;;
16775;SDS011;8505;49.456;8.164;2023-12-20T08:51:04;7.30;;;1.77;;
16775;SDS011;8505;49.456;8.164;2023-12-20T08:53:33;8.13;;;1.80;;
16775;SDS011;8505;49.456;8.164;2023-12-20T08:56:02;9.23;;;2.20;;
16775;SDS011;8505;49.456;8.164;2023-12-20T08:58:31;6.60;;;1.90;;
16775;SDS011;8505;49.456;8.164;2023-12-20T09:00:59;10.73;;;1.75;;
16775;SDS011;8505;49.456;8.164;2023-12-20T09:03:27;9.50;;;1.77;;
16775;SDS011;8505;49.456;8.164;2023-12-20T09:05:55;7.35;;;1.75;;
16775;SDS011;8505;49.456;8.164;2023-12-20T09:08:22;6.55;;;1.70;;
16775;SDS011;8505;49.456;8.164;2023-12-20T09:10:50;7.65;;;1.58;;
16775;SDS011;8505;49.456;8.164;2023-12-20T09:13:19;7.40;;;1.80;;
16775;SDS011;8505;49.456;8.164;2023-12-20T09:15:48;9.43;;;1.70;;
16775;SDS011;8505;49.456;8.164;2023-12-20T09:18:16;11.27;;;1.88;;
16775;SDS011;8505;49.456;8.164;2023-12-20T09:20:44;7.38;;;1.60;;
16775;SDS011;8505;49.456;8.164;2023-12-20T09:23:14;7.10;;;1.90;;
16775;SDS011;8505;49.456;8.164;2023-12-20T09:25:42;8.25;;;1.83;;
16775;SDS011;8505;49.456;8.164;2023-12-20T09:28:09;10.18;;;2.10;;
16775;SDS011;8505;49.456;8.164;2023-12-20T09:30:38;7.87;;;1.90;;
16775;SDS011;8505;49.456;8.164;2023-12-20T09:33:07;8.30;;;2.03;;
16775;SDS011;8505;49.456;8.164;2023-12-20T09:35:35;9.98;;;1.83;;
16775;SDS011;8505;49.456;8.164;2023-12-20T09:38:03;12.37;;;2.10;;
16775;SDS011;8505;49.456;8.164;2023-12-20T09:40:31;9.68;;;1.92;;
16775;SDS011;8505;49.456;8.164;2023-12-20T09:43:02;9.63;;;1.90;;
16775;SDS011;8505;49.456;8.164;2023-12-20T09:45:31;9.15;;;2.30;;
16775;SDS011;8505;49.456;8.164;2023-12-20T09:48:01;9.93;;;2.15;;
16775;SDS011;8505;49.456;8.164;2023-12-20T09:50:31;10.85;;;2.00;;
16775;SDS011;8505;49.456;8.164;2023-12-20T09:53:00;8.63;;;1.83;;
16775;SDS011;8505;49.456;8.164;2023-12-20T09:55:30;9.55;;;1.90;;
16775;SDS011;8505;49.456;8.164;2023-12-20T09:58:00;7.70;;;1.75;;
16775;SDS011;8505;49.456;8.164;2023-12-20T10:00:28;11.45;;;2.50;;
16775;SDS011;8505;49.456;8.164;2023-12-20T10:02:56;12.35;;;2.70;;
16775;SDS011;8505;49.456;8.164;2023-12-20T10:05:27;13.57;;;3.25;;
16775;SDS011;8505;49.456;8.164;2023-12-20T10:07:57;13.43;;;3.38;;
16775;SDS011;8505;49.456;8.164;2023-12-20T10:10:25;11.52;;;2.20;;
16775;SDS011;8505;49.456;8.164;2023-12-20T10:13:08;10.43;;;2.72;;
16775;SDS011;8505;49.456;8.164;2023-12-20T10:15:37;9.83;;;2.70;;
16775;SDS011;8505;49.456;8.164;2023-12-20T10:18:07;9.20;;;2.40;;
16775;SDS011;8505;49.456;8.164;2023-12-20T10:20:37;8.52;;;2.22;;
16775;SDS011;8505;49.456;8.164;2023-12-20T10:23:05;10.47;;;2.10;;
16775;SDS011;8505;49.456;8.164;2023-12-20T10:25:33;10.77;;;2.42;;
16775;SDS011;8505;49.456;8.164;2023-12-20T10:28:10;8.52;;;2.55;;
16775;SDS011;8505;49.456;8.164;2023-12-20T10:30:40;8.10;;;2.35;;
16775;SDS011;8505;49.456;8.164;2023-12-20T10:33:09;8.68;;;2.08;;
16775;SDS011;8505;49.456;8.164;2023-12-20T10:35:39;8.53;;;2.40;;
16775;SDS011;8505;49.456;8.164;2023-12-20T10:38:11;8.27;;;2.22;;
16775;SDS011;8505;49.456;8.164;2023-12-20T10:40:40;10.65;;;2.30;;
16775;SDS011;8505;49.456;8.164;2023-12-20T10:43:09;9.05;;;2.45;;
16775;SDS011;8505;49.456;8.164;2023-12-20T10:45:38;11.50;;;2.60;;
16775;SDS011;8505;49.456;8.164;2023-12-20T10:48:05;9.00;;;2.17;;
16775;SDS011;8505;49.456;8.164;2023-12-20T10:50:35;8.32;;;2.60;;
16775;SDS011;8505;49.456;8.164;2023-12-20T10:53:06;10.13;;;2.47;;
16775;SDS011;8505;49.456;8.164;2023-12-20T10:55:34;8.68;;;2.33;;
16775;SDS011;8505;49.456;8.164;2023-12-20T10:58:07;8.02;;;2.00;;
16775;SDS011;8505;49.456;8.164;2023-12-20T11:00:37;7.97;;;2.10;;
16775;SDS011;8505;49.456;8.164;2023-12-20T11:03:10;8.60;;;2.17;;
16775;SDS011;8505;49.456;8.164;2023-12-20T11:05:41;8.45;;;2.40;;
16775;SDS011;8505;49.456;8.164;2023-12-20T11:08:19;10.00;;;2.50;;
16775;SDS011;8505;49.456;8.164;2023-12-20T11:10:51;9.15;;;2.30;;
16775;SDS011;8505;49.456;8.164;2023-12-20T11:13:26;7.55;;;1.80;;
16775;SDS011;8505;49.456;8.164;2023-12-20T11:15:58;7.38;;;2.00;;
16775;SDS011;8505;49.456;8.164;2023-12-20T11:18:30;9.38;;;2.38;;
16775;SDS011;8505;49.456;8.164;2023-12-20T11:21:00;10.73;;;2.70;;
16775;SDS011;8505;49.456;8.164;2023-12-20T11:23:30;7.55;;;2.13;;
16775;SDS011;8505;49.456;8.164;2023-12-20T11:26:01;7.18;;;2.38;;
16775;SDS011;8505;49.456;8.164;2023-12-20T11:28:29;7.72;;;2.38;;
16775;SDS011;8505;49.456;8.164;2023-12-20T11:30:58;9.68;;;2.40;;
16775;SDS011;8505;49.456;8.164;2023-12-20T11:33:29;9.45;;;2.70;;
16775;SDS011;8505;49.456;8.164;2023-12-20T11:35:58;9.18;;;2.90;;
16775;SDS011;8505;49.456;8.164;2023-12-20T11:38:26;12.00;;;2.50;;
16775;SDS011;8505;49.456;8.164;2023-12-20T11:40:55;9.82;;;2.70;;
16775;SDS011;8505;49.456;8.164;2023-12-20T11:43:30;9.93;;;2.70;;
16775;SDS011;8505;49.456;8.164;2023-12-20T11:46:05;15.35;;;4.90;;
16775;SDS011;8505;49.456;8.164;2023-12-20T11:48:35;17.27;;;6.17;;
16775;SDS011;8505;49.456;8.164;2023-12-20T11:51:08;16.75;;;5.07;;
16775;SDS011;8505;49.456;8.164;2023-12-20T11:53:36;11.35;;;4.88;;
16775;SDS011;8505;49.456;8.164;2023-12-20T11:56:06;12.35;;;3.35;;
16775;SDS011;8505;49.456;8.164;2023-12-20T11:58:34;12.63;;;4.37;;
16775;SDS011;8505;49.456;8.164;2023-12-20T12:01:03;14.98;;;3.65;;
16775;SDS011;8505;49.456;8.164;2023-12-20T12:03:34;10.85;;;3.13;;
16775;SDS011;8505;49.456;8.164;2023-12-20T12:06:02;11.33;;;3.50;;
16775;SDS011;8505;49.456;8.164;2023-12-20T12:08:31;9.65;;;3.53;;
16775;SDS011;8505;49.456;8.164;2023-12-20T12:10:59;12.68;;;2.75;;
16775;SDS011;8505;49.456;8.164;2023-12-20T12:13:29;12.07;;;3.00;;
16775;SDS011;8505;49.456;8.164;2023-12-20T12:15:57;11.98;;;2.95;;
16775;SDS011;8505;49.456;8.164;2023-12-20T12:18:26;9.88;;;2.90;;
16775;SDS011;8505;49.456;8.164;2023-12-20T12:20:59;13.55;;;3.72;;
16775;SDS011;8505;49.456;8.164;2023-12-20T12:23:31;11.65;;;3.42;;
16775;SDS011;8505;49.456;8.164;2023-12-20T12:25:59;11.13;;;3.65;;
16775;SDS011;8505;49.456;8.164;2023-12-20T12:28:28;11.73;;;3.80;;
16775;SDS011;8505;49.456;8.164;2023-12-20T12:30:58;9.95;;;3.03;;
16775;SDS011;8505;49.456;8.164;2023-12-20T12:33:26;12.63;;;3.60;;
16775;SDS011;8505;49.456;8.164;2023-12-20T12:35:54;11.50;;;2.93;;
16775;SDS011;8505;49.456;8.164;2023-12-20T12:38:22;10.85;;;3.20;;
16775;SDS011;8505;49.456;8.164;2023-12-20T12:40:51;12.00;;;2.90;;
16775;SDS011;8505;49.456;8.164;2023-12-20T12:43:20;8.68;;;2.40;;
16775;SDS011;8505;49.456;8.164;2023-12-20T12:45:50;9.93;;;2.65;;
16775;SDS011;8505;49.456;8.164;2023-12-20T12:48:18;9.48;;;2.60;;
16775;SDS011;8505;49.456;8.164;2023-12-20T12:50:46;7.82;;;1.90;;
16775;SDS011;8505;49.456;8.164;2023-12-20T12:53:14;11.20;;;2.50;;
16775;SDS011;8505;49.456;8.164;2023-12-20T12:55:42;11.77;;;2.90;;
16775;SDS011;8505;49.456;8.164;2023-12-20T12:58:09;8.23;;;1.92;;
16775;SDS011;8505;49.456;8.164;2023-12-20T13:00:37;10.95;;;2.78;;
16775;SDS011;8505;49.456;8.164;2023-12-20T13:03:06;13.53;;;2.67;;
16775;SDS011;8505;49.456;8.164;2023-12-20T13:05:34;8.75;;;2.65;;
16775;SDS011;8505;49.456;8.164;2023-12-20T13:08:06;9.43;;;2.50;;
16775;SDS011;8505;49.456;8.164;2023-12-20T13:10:34;8.83;;;2.70;;
16775;SDS011;8505;49.456;8.164;2023-12-20T13:13:01;10.75;;;2.58;;
16775;SDS011;8505;49.456;8.164;2023-12-20T13:15:30;12.65;;;3.10;;
16775;SDS011;8505;49.456;8.164;2023-12-20T13:17:57;10.27;;;3.03;;
16775;SDS011;8505;49.456;8.164;2023-12-20T13:20:27;12.95;;;4.30;;
16775;SDS011;8505;49.456;8.164;2023-12-20T13:22:55;17.80;;;4.93;;
16775;SDS011;8505;49.456;8.164;2023-12-20T13:25:23;14.40;;;5.60;;
16775;SDS011;8505;49.456;8.164;2023-12-20T13:27:51;17.55;;;7.03;;
16775;SDS011;8505;49.456;8.164;2023-12-20T13:30:19;7.97;;;3.15;;
16775;SDS011;8505;49.456;8.164;2023-12-20T13:32:46;13.67;;;3.17;;
16775;SDS011;8505;49.456;8.164;2023-12-20T13:35:15;10.00;;;2.90;;
16775;SDS011;8505;49.456;8.164;2023-12-20T13:37:44;9.23;;;2.13;;
16775;SDS011;8505;49.456;8.164;2023-12-20T13:40:12;10.70;;;2.90;;
16775;SDS011;8505;49.456;8.164;2023-12-20T13:42:40;10.32;;;2.60;;
16775;SDS011;8505;49.456;8.164;2023-12-20T13:45:08;8.63;;;2.07;;
16775;SDS011;8505;49.456;8.164;2023-12-20T13:47:36;6.10;;;2.00;;
16775;SDS011;8505;49.456;8.164;2023-12-20T13:50:05;13.00;;;2.55;;
16775;SDS011;8505;49.456;8.164;2023-12-20T13:52:33;8.80;;;1.98;;
16775;SDS011;8505;49.456;8.164;2023-12-20T13:55:06;9.80;;;2.10;;
16775;SDS011;8505;49.456;8.164;2023-12-20T13:57:35;8.32;;;2.30;;
16775;SDS011;8505;49.456;8.164;2023-12-20T14:00:09;7.53;;;1.92;;
16775;SDS011;8505;49.456;8.164;2023-12-20T14:02:41;5.90;;;1.48;;
16775;SDS011;8505;49.456;8.164;2023-12-20T14:05:09;7.25;;;2.00;;
16775;SDS011;8505;49.456;8.164;2023-12-20T14:07:37;9.90;;;2.90;;
16775;SDS011;8505;49.456;8.164;2023-12-20T14:10:07;10.65;;;2.00;;
16775;SDS011;8505;49.456;8.164;2023-12-20T14:12:36;9.00;;;2.05;;
16775;SDS011;8505;49.456;8.164;2023-12-20T14:15:05;10.25;;;2.80;;
16775;SDS011;8505;49.456;8.164;2023-12-20T14:17:37;7.88;;;2.53;;
16775;SDS011;8505;49.456;8.164;2023-12-20T14:20:05;5.57;;;1.58;;
16775;SDS011;8505;49.456;8.164;2023-12-20T14:22:34;6.85;;;2.00;;
16775;SDS011;8505;49.456;8.164;2023-12-20T14:25:03;8.82;;;2.17;;
16775;SDS011;8505;49.456;8.164;2023-12-20T14:27:34;8.50;;;2.42;;
16775;SDS011;8505;49.456;8.164;2023-12-20T14:30:02;10.70;;;2.55;;
16775;SDS011;8505;49.456;8.164;2023-12-20T14:32:30;10.98;;;2.80;;
16775;SDS011;8505;49.456;8.164;2023-12-20T14:34:58;10.13;;;3.20;;
16775;SDS011;8505;49.456;8.164;2023-12-20T14:37:26;10.30;;;2.80;;
16775;SDS011;8505;49.456;8.164;2023-12-20T14:39:54;10.48;;;2.67;;
16775;SDS011;8505;49.456;8.164;2023-12-20T14:42:22;9.75;;;2.70;;
16775;SDS011;8505;49.456;8.164;2023-12-20T14:44:51;14.70;;;4.47;;
16775;SDS011;8505;49.456;8.164;2023-12-20T14:47:20;11.25;;;3.38;;
16775;SDS011;8505;49.456;8.164;2023-12-20T14:49:48;21.08;;;8.40;;
16775;SDS011;8505;49.456;8.164;2023-12-20T14:52:17;11.55;;;3.58;;
16775;SDS011;8505;49.456;8.164;2023-12-20T14:54:45;12.18;;;3.67;;
16775;SDS011;8505;49.456;8.164;2023-12-20T14:57:13;11.32;;;3.30;;
16775;SDS011;8505;49.456;8.164;2023-12-20T14:59:40;14.80;;;3.78;;
16775;SDS011;8505;49.456;8.164;2023-12-20T15:02:11;13.57;;;4.00;;
16775;SDS011;8505;49.456;8.164;2023-12-20T15:04:39;16.65;;;5.20;;
16775;SDS011;8505;49.456;8.164;2023-12-20T15:07:07;15.00;;;4.30;;